sensor_id;sensor_type;location;lat;lon;timestamp;pressure;altitude;pressure_sealevel;temperature;humidity
3668;BME280;24099;47.102;15.440;2022-11-27T00:00:27;98473.53;;;-0.26;100.00
3668;BME280;24099;47.102;15.440;2022-11-27T00:03:15;98472.03;;;-0.15;100.00
3668;BME280;24099;47.102;15.440;2022-11-27T00:06:01;98469.69;;;-0.19;100.00
3668;BME280;24099;47.102;15.440;2022-11-27T00:09:13;98464.03;;;-0.26;100.00
3668;BME280;24099;47.102;15.440;2022-11-27T00:11:47;98472.13;;;-0.32;100.00
3668;BME280;24099;47.102;15.440;2022-11-27T00:14:17;98468.44;;;-0.28;100.00
3668;BME280;24099;47.102;15.440;2022-11-27T00:16:54;98468.28;;;-0.25;100.00
3668;BME280;24099;47.102;15.440;2022-11-27T00:19:40;98473.53;;;-0.26;100.00
3668;BME280;24099;47.102;15.440;2022-11-27T00:22:16;98477.38;;;-0.18;100.00
3668;BME280;24099;47.102;15.440;2022-11-27T00:24:51;98473.97;;;-0.03;100.00
3668;BME280;24099;47.102;15.440;2022-11-27T00:27:20;98474.97;;;-0.05;100.00
3668;BME280;24099;47.102;15.440;2022-11-27T00:29:56;98482.56;;;-0.02;100.00
3668;BME280;24099;47.102;15.440;2022-11-27T00:32:42;98486.63;;;0.02;100.00
3668;BME280;24099;47.102;15.440;2022-11-27T00:35:22;98487.22;;;-0.09;100.00
3668;BME280;24099;47.102;15.440;2022-11-27T00:37:58;98484.66;;;-0.09;100.00
3668;BME280;24099;47.102;15.440;2022-11-27T00:40:27;98480.47;;;0.05;100.00
3668;BME280;24099;47.102;15.440;2022-11-27T00:42:56;98491.41;;;-0.06;100.00
3668;BME280;24099;47.102;15.440;2022-11-27T00:45:29;98484.31;;;-0.03;100.00
3668;BME280;24099;47.102;15.440;2022-11-27T00:48:17;98484.31;;;0.13;100.00
3668;BME280;24099;47.102;15.440;2022-11-27T00:51:22;98486.38;;;0.07;100.00
3668;BME280;24099;47.102;15.440;2022-11-27T00:54:40;98485.16;;;-0.02;100.00
3668;BME280;24099;47.102;15.440;2022-11-27T00:57:22;98480.53;;;0.03;100.00
3668;BME280;24099;47.102;15.440;2022-11-27T01:00:04;98479.16;;;-0.03;100.00
3668;BME280;24099;47.102;15.440;2022-11-27T01:02:53;98488.38;;;0.02;100.00
3668;BME280;24099;47.102;15.440;2022-11-27T01:05:24;98487.47;;;0.03;100.00
3668;BME280;24099;47.102;15.440;2022-11-27T01:08:10;98487.31;;;0.06;100.00
3668;BME280;24099;47.102;15.440;2022-11-27T01:10:55;98490.66;;;0.08;100.00
3668;BME280;24099;47.102;15.440;2022-11-27T01:13:43;98492.31;;;0.09;100.00
3668;BME280;24099;47.102;15.440;2022-11-27T01:16:22;98489.91;;;0.06;100.00
3668;BME280;24099;47.102;15.440;2022-11-27T01:18:58;98489.81;;;0.07;100.00
3668;BME280;24099;47.102;15.440;2022-11-27T01:21:34;98480.44;;;0.20;100.00
3668;BME280;24099;47.102;15.440;2022-11-27T01:24:22;98472.63;;;0.06;100.00
3668;BME280;24099;47.102;15.440;2022-11-27T01:27:07;98478.53;;;0.08;100.00
3668;BME280;24099;47.102;15.440;2022-11-27T01:29:39;98478.88;;;0.18;100.00
3668;BME280;24099;47.102;15.440;2022-11-27T01:32:12;98477.84;;;0.20;100.00
3668;BME280;24099;47.102;15.440;2022-11-27T01:34:47;98471.97;;;0.18;100.00
3668;BME280;24099;47.102;15.440;2022-11-27T01:37:22;98482.47;;;0.15;100.00
3668;BME280;24099;47.102;15.440;2022-11-27T01:51:00;98486.97;;;0.27;100.00
3668;BME280;24099;47.102;15.440;2022-11-27T01:53:39;98481.78;;;0.27;100.00
3668;BME280;24099;47.102;15.440;2022-11-27T01:56:37;98491.81;;;0.33;100.00
3668;BME280;24099;47.102;15.440;2022-11-27T01:59:30;98493.38;;;0.36;100.00
3668;BME280;24099;47.102;15.440;2022-11-27T02:02:13;98486.03;;;0.28;100.00
3668;BME280;24099;47.102;15.440;2022-11-27T02:05:31;98477.09;;;0.34;100.00
3668;BME280;24099;47.102;15.440;2022-11-27T02:08:44;98478.25;;;0.44;100.00
3668;BME280;24099;47.102;15.440;2022-11-27T02:11:45;98487.28;;;0.37;100.00
3668;BME280;24099;47.102;15.440;2022-11-27T02:14:46;98488.63;;;0.28;100.00
3668;BME280;24099;47.102;15.440;2022-11-27T02:17:35;98489.66;;;0.10;100.00
3668;BME280;24099;47.102;15.440;2022-11-27T02:20:35;98493.75;;;0.14;100.00
3668;BME280;24099;47.102;15.440;2022-11-27T02:23:51;98488.22;;;0.05;100.00
3668;BME280;24099;47.102;15.440;2022-11-27T02:29:32;98481.81;;;0.12;100.00
3668;BME280;24099;47.102;15.440;2022-11-27T02:32:27;98484.22;;;0.15;100.00
3668;BME280;24099;47.102;15.440;2022-11-27T02:35:15;98480.97;;;0.11;100.00
3668;BME280;24099;47.102;15.440;2022-11-27T02:37:49;98481.97;;;0.09;100.00
3668;BME280;24099;47.102;15.440;2022-11-27T02:40:49;98486.47;;;-0.11;100.00
3668;BME280;24099;47.102;15.440;2022-11-27T02:43:33;98485.25;;;-0.04;100.00
3668;BME280;24099;47.102;15.440;2022-11-27T02:46:10;98483.97;;;0.04;100.00
3668;BME280;24099;47.102;15.440;2022-11-27T02:49:06;98476.53;;;-0.18;100.00
3668;BME280;24099;47.102;15.440;2022-11-27T02:51:55;98481.72;;;-0.18;100.00
3668;BME280;24099;47.102;15.440;2022-11-27T02:54:29;98476.28;;;-0.14;100.00
3668;BME280;24099;47.102;15.440;2022-11-27T02:57:19;98470.78;;;-0.08;100.00
3668;BME280;24099;47.102;15.440;2022-11-27T03:00:04;98471.63;;;-0.07;100.00
3668;BME280;24099;47.102;15.440;2022-11-27T03:02:59;98465.47;;;-0.20;100.00
3668;BME280;24099;47.102;15.440;2022-11-27T03:05:46;98476.53;;;-0.18;100.00
3668;BME280;24099;47.102;15.440;2022-11-27T03:08:44;98479.63;;;-0.12;100.00
3668;BME280;24099;47.102;15.440;2022-11-27T03:11:24;98479.13;;;-0.18;100.00
3668;BME280;24099;47.102;15.440;2022-11-27T03:14:07;98469.38;;;-0.29;100.00
3668;BME280;24099;47.102;15.440;2022-11-27T03:17:00;98474.88;;;-0.19;100.00
3668;BME280;24099;47.102;15.440;2022-11-27T03:19:56;98469.81;;;-0.21;100.00
3668;BME280;24099;47.102;15.440;2022-11-27T03:22:41;98470.72;;;-0.22;100.00
3668;BME280;24099;47.102;15.440;2022-11-27T03:25:38;98464.94;;;-0.27;100.00
3668;BME280;24099;47.102;15.440;2022-11-27T03:28:17;98463.97;;;-0.24;100.00
3668;BME280;24099;47.102;15.440;2022-11-27T03:30:58;98462.19;;;-0.24;100.00
3668;BME280;24099;47.102;15.440;2022-11-27T03:33:36;98459.84;;;-0.28;100.00
3668;BME280;24099;47.102;15.440;2022-11-27T03:36:27;98456.69;;;-0.33;100.00
3668;BME280;24099;47.102;15.440;2022-11-27T03:39:08;98454.16;;;-0.35;100.00
3668;BME280;24099;47.102;15.440;2022-11-27T03:41:47;98451.66;;;-0.37;100.00
3668;BME280;24099;47.102;15.440;2022-11-27T03:44:32;98444.66;;;-0.35;100.00
3668;BME280;24099;47.102;15.440;2022-11-27T03:47:28;98450.94;;;-0.23;100.00
3668;BME280;24099;47.102;15.440;2022-11-27T03:50:27;98448.59;;;-0.27;100.00
3668;BME280;24099;47.102;15.440;2022-11-27T03:53:18;98443.25;;;-0.40;100.00
3668;BME280;24099;47.102;15.440;2022-11-27T03:55:59;98438.66;;;-0.51;100.00
3668;BME280;24099;47.102;15.440;2022-11-27T03:59:12;98432.13;;;-0.58;100.00
3668;BME280;24099;47.102;15.440;2022-11-27T04:02:29;98430.06;;;-0.51;100.00
3668;BME280;24099;47.102;15.440;2022-11-27T04:05:28;98436.13;;;-0.68;100.00
3668;BME280;24099;47.102;15.440;2022-11-27T04:08:24;98446.31;;;-0.49;100.00
3668;BME280;24099;47.102;15.440;2022-11-27T04:11:16;98443.38;;;-0.59;100.00
3668;BME280;24099;47.102;15.440;2022-11-27T04:13:52;98443.97;;;-0.70;100.00
3668;BME280;24099;47.102;15.440;2022-11-27T04:16:26;98443.50;;;-0.78;100.00
3668;BME280;24099;47.102;15.440;2022-11-27T04:19:09;98448.69;;;-0.78;100.00
3668;BME280;24099;47.102;15.440;2022-11-27T04:21:40;98453.84;;;-0.78;100.00
3668;BME280;24099;47.102;15.440;2022-11-27T04:24:21;98442.69;;;-0.78;100.00
3668;BME280;24099;47.102;15.440;2022-11-27T04:27:29;98437.34;;;-0.75;100.00
3668;BME280;24099;47.102;15.440;2022-11-27T04:30:03;98424.34;;;-0.74;100.00
3668;BME280;24099;47.102;15.440;2022-11-27T04:32:38;98435.28;;;-0.68;100.00
3668;BME280;24099;47.102;15.440;2022-11-27T04:35:18;98435.44;;;-0.72;100.00
3668;BME280;24099;47.102;15.440;2022-11-27T04:37:53;98441.22;;;-0.66;100.00
3668;BME280;24099;47.102;15.440;2022-11-27T04:40:42;98446.56;;;-0.54;100.00
3668;BME280;24099;47.102;15.440;2022-11-27T04:43:14;98447.72;;;-0.59;100.00
3668;BME280;24099;47.102;15.440;2022-11-27T04:45:44;98438.88;;;-0.71;100.00
3668;BME280;24099;47.102;15.440;2022-11-27T04:48:29;98435.84;;;-0.79;100.00
3668;BME280;24099;47.102;15.440;2022-11-27T04:51:06;98436.28;;;-0.71;100.00
3668;BME280;24099;47.102;15.440;2022-11-27T04:53:45;98431.63;;;-0.64;100.00
3668;BME280;24099;47.102;15.440;2022-11-27T04:56:17;98433.88;;;-0.58;100.00
3668;BME280;24099;47.102;15.440;2022-11-27T04:58:48;98430.84;;;-0.82;100.00
3668;BME280;24099;47.102;15.440;2022-11-27T05:01:26;98423.50;;;-0.90;100.00
3668;BME280;24099;47.102;15.440;2022-11-27T05:03:58;98422.44;;;-0.86;100.00
3668;BME280;24099;47.102;15.440;2022-11-27T05:06:35;98422.28;;;-0.83;100.00
3668;BME280;24099;47.102;15.440;2022-11-27T05:09:17;98422.34;;;-0.84;100.00
3668;BME280;24099;47.102;15.440;2022-11-27T05:11:47;98433.19;;;-0.78;100.00
3668;BME280;24099;47.102;15.440;2022-11-27T05:14:26;98425.09;;;-0.87;100.00
3668;BME280;24099;47.102;15.440;2022-11-27T05:17:24;98431.41;;;-0.93;100.00
3668;BME280;24099;47.102;15.440;2022-11-27T05:20:05;98439.53;;;-0.83;100.00
3668;BME280;24099;47.102;15.440;2022-11-27T05:22:45;98438.19;;;-0.75;100.00
3668;BME280;24099;47.102;15.440;2022-11-27T05:25:30;98439.06;;;-0.91;100.00
3668;BME280;24099;47.102;15.440;2022-11-27T05:28:15;98439.84;;;-0.89;100.00
3668;BME280;24099;47.102;15.440;2022-11-27T05:30:48;98447.19;;;-0.82;100.00
3668;BME280;24099;47.102;15.440;2022-11-27T05:33:36;98435.88;;;-0.96;100.00
3668;BME280;24099;47.102;15.440;2022-11-27T05:36:12;98444.41;;;-0.94;100.00
3668;BME280;24099;47.102;15.440;2022-11-27T05:38:51;98440.41;;;-1.00;100.00
3668;BME280;24099;47.102;15.440;2022-11-27T05:41:23;98449.78;;;-0.99;100.00
3668;BME280;24099;47.102;15.440;2022-11-27T05:43:57;98444.63;;;-0.99;100.00
3668;BME280;24099;47.102;15.440;2022-11-27T05:46:32;98442.69;;;-0.78;100.00
3668;BME280;24099;47.102;15.440;2022-11-27T05:49:04;98448.34;;;-0.87;100.00
3668;BME280;24099;47.102;15.440;2022-11-27T05:51:37;98447.53;;;-1.05;100.00
3668;BME280;24099;47.102;15.440;2022-11-27T05:54:16;98439.13;;;-1.09;100.00
3668;BME280;24099;47.102;15.440;2022-11-27T05:56:49;98437.22;;;-1.05;100.00
3668;BME280;24099;47.102;15.440;2022-11-27T05:59:22;98438.28;;;-1.09;100.00
3668;BME280;24099;47.102;15.440;2022-11-27T06:01:51;98432.03;;;-1.05;100.00
3668;BME280;24099;47.102;15.440;2022-11-27T06:04:37;98436.44;;;-1.07;100.00
3668;BME280;24099;47.102;15.440;2022-11-27T06:07:07;98430.34;;;-0.89;100.00
3668;BME280;24099;47.102;15.440;2022-11-27T06:09:38;98424.78;;;-0.98;100.00
3668;BME280;24099;47.102;15.440;2022-11-27T06:12:12;98434.03;;;-1.10;100.00
3668;BME280;24099;47.102;15.440;2022-11-27T06:14:50;98438.34;;;-1.11;100.00
3668;BME280;24099;47.102;15.440;2022-11-27T06:17:32;98446.78;;;-1.07;100.00
3668;BME280;24099;47.102;15.440;2022-11-27T06:20:11;98443.13;;;-1.03;100.00
3668;BME280;24099;47.102;15.440;2022-11-27T06:23:24;98441.16;;;-1.15;100.00
3668;BME280;24099;47.102;15.440;2022-11-27T06:26:32;98440.59;;;-1.20;100.00
3668;BME280;24099;47.102;15.440;2022-11-27T06:29:26;98449.31;;;-1.23;100.00
3668;BME280;24099;47.102;15.440;2022-11-27T06:32:16;98450.44;;;-1.28;100.00
3668;BME280;24099;47.102;15.440;2022-11-27T06:34:50;98446.97;;;-1.27;100.00
3668;BME280;24099;47.102;15.440;2022-11-27T06:37:24;98444.09;;;-1.21;100.00
3668;BME280;24099;47.102;15.440;2022-11-27T06:40:08;98450.91;;;-1.20;100.00
3668;BME280;24099;47.102;15.440;2022-11-27T06:43:07;98449.97;;;-1.19;100.00
3668;BME280;24099;47.102;15.440;2022-11-27T06:45:55;98447.56;;;-1.22;100.00
3668;BME280;24099;47.102;15.440;2022-11-27T06:49:10;98457.88;;;-1.05;100.00
3668;BME280;24099;47.102;15.440;2022-11-27T06:51:42;98457.97;;;-1.07;100.00
3668;BME280;24099;47.102;15.440;2022-11-27T06:54:12;98456.22;;;-1.06;100.00
3668;BME280;24099;47.102;15.440;2022-11-27T06:56:44;98448.59;;;-1.09;100.00
3668;BME280;24099;47.102;15.440;2022-11-27T06:59:15;98449.00;;;-1.17;100.00
3668;BME280;24099;47.102;15.440;2022-11-27T07:02:07;98457.41;;;-1.13;100.00
3668;BME280;24099;47.102;15.440;2022-11-27T07:04:51;98452.47;;;-1.18;100.00
3668;BME280;24099;47.102;15.440;2022-11-27T07:07:22;98454.06;;;-1.15;100.00
3668;BME280;24099;47.102;15.440;2022-11-27T07:13:10;98453.13;;;-0.97;100.00
3668;BME280;24099;47.102;15.440;2022-11-27T07:15:50;98463.47;;;-0.97;100.00
3668;BME280;24099;47.102;15.440;2022-11-27T07:18:26;98456.31;;;-0.92;100.00
3668;BME280;24099;47.102;15.440;2022-11-27T07:21:18;98456.47;;;-0.95;100.00
3668;BME280;24099;47.102;15.440;2022-11-27T07:23:50;98461.72;;;-0.96;100.00
3668;BME280;24099;47.102;15.440;2022-11-27T07:26:45;98462.38;;;-1.09;100.00
3668;BME280;24099;47.102;15.440;2022-11-27T07:29:23;98451.19;;;-1.09;100.00
3668;BME280;24099;47.102;15.440;2022-11-27T07:32:06;98462.38;;;-1.09;100.00
3668;BME280;24099;47.102;15.440;2022-11-27T07:35:14;98455.34;;;-0.89;100.00
3668;BME280;24099;47.102;15.440;2022-11-27T07:38:01;98462.06;;;-1.02;100.00
3668;BME280;24099;47.102;15.440;2022-11-27T07:40:32;98466.50;;;-0.89;100.00
3668;BME280;24099;47.102;15.440;2022-11-27T07:43:18;98468.22;;;-0.72;100.00
3668;BME280;24099;47.102;15.440;2022-11-27T07:46:16;98471.19;;;-0.80;100.00
3668;BME280;24099;47.102;15.440;2022-11-27T07:48:49;98470.09;;;-0.91;100.00
3668;BME280;24099;47.102;15.440;2022-11-27T07:51:22;98467.03;;;-0.82;100.00
3668;BME280;24099;47.102;15.440;2022-11-27T07:54:04;98460.00;;;-0.63;100.00
3668;BME280;24099;47.102;15.440;2022-11-27T07:56:47;98463.50;;;-0.48;100.00
3668;BME280;24099;47.102;15.440;2022-11-27T07:59:33;98464.25;;;-0.46;100.00
3668;BME280;24099;47.102;15.440;2022-11-27T08:02:45;98467.44;;;-0.41;100.00
3668;BME280;24099;47.102;15.440;2022-11-27T08:05:18;98464.09;;;-0.43;100.00
3668;BME280;24099;47.102;15.440;2022-11-27T08:07:52;98455.59;;;-0.61;100.00
3668;BME280;24099;47.102;15.440;2022-11-27T08:10:29;98457.28;;;-0.44;100.00
3668;BME280;24099;47.102;15.440;2022-11-27T08:13:08;98454.25;;;-0.52;100.00
3668;BME280;24099;47.102;15.440;2022-11-27T08:18:50;98452.72;;;-0.56;100.00
3668;BME280;24099;47.102;15.440;2022-11-27T08:21:28;98446.84;;;-0.43;100.00
3668;BME280;24099;47.102;15.440;2022-11-27T08:24:15;98450.50;;;-0.31;100.00
3668;BME280;24099;47.102;15.440;2022-11-27T08:27:04;98457.28;;;-0.13;100.00
3668;BME280;24099;47.102;15.440;2022-11-27T08:29:39;98456.19;;;-0.09;100.00
3668;BME280;24099;47.102;15.440;2022-11-27T08:32:13;98454.03;;;-0.01;100.00
3668;BME280;24099;47.102;15.440;2022-11-27T08:34:46;98454.41;;;0.08;100.00
3668;BME280;24099;47.102;15.440;2022-11-27T08:37:34;98443.03;;;0.26;100.00
3668;BME280;24099;47.102;15.440;2022-11-27T08:40:15;98445.94;;;0.36;100.00
3668;BME280;24099;47.102;15.440;2022-11-27T08:42:59;98447.53;;;0.38;100.00
3668;BME280;24099;47.102;15.440;2022-11-27T08:45:46;98452.88;;;0.35;100.00
3668;BME280;24099;47.102;15.440;2022-11-27T08:48:26;98450.25;;;0.51;100.00
3668;BME280;24099;47.102;15.440;2022-11-27T08:51:16;98448.06;;;0.59;100.00
3668;BME280;24099;47.102;15.440;2022-11-27T08:53:56;98446.50;;;0.71;100.00
3668;BME280;24099;47.102;15.440;2022-11-27T08:56:37;98454.69;;;0.93;100.00
3668;BME280;24099;47.102;15.440;2022-11-27T08:59:25;98452.13;;;1.07;100.00
3668;BME280;24099;47.102;15.440;2022-11-27T09:01:56;98449.72;;;1.18;100.00
3668;BME280;24099;47.102;15.440;2022-11-27T09:04:49;98440.66;;;1.40;100.00
3668;BME280;24099;47.102;15.440;2022-11-27T09:07:30;98443.88;;;1.57;100.00
3668;BME280;24099;47.102;15.440;2022-11-27T09:10:06;98438.50;;;1.46;100.00
3668;BME280;24099;47.102;15.440;2022-11-27T09:12:41;98433.28;;;1.75;100.00
3668;BME280;24099;47.102;15.440;2022-11-27T09:15:15;98433.41;;;1.59;100.00
3668;BME280;24099;47.102;15.440;2022-11-27T09:17:58;98424.34;;;1.93;100.00
3668;BME280;24099;47.102;15.440;2022-11-27T09:21:30;98417.31;;;2.07;100.00
3668;BME280;24099;47.102;15.440;2022-11-27T09:24:11;98420.91;;;1.92;100.00
3668;BME280;24099;47.102;15.440;2022-11-27T09:26:40;98411.06;;;1.97;100.00
3668;BME280;24099;47.102;15.440;2022-11-27T09:29:21;98413.97;;;2.20;100.00
3668;BME280;24099;47.102;15.440;2022-11-27T09:31:56;98415.41;;;2.24;100.00
3668;BME280;24099;47.102;15.440;2022-11-27T09:34:31;98410.09;;;2.65;100.00
3668;BME280;24099;47.102;15.440;2022-11-27T09:37:03;98409.38;;;3.01;100.00
3668;BME280;24099;47.102;15.440;2022-11-27T09:39:36;98413.75;;;3.38;100.00
3668;BME280;24099;47.102;15.440;2022-11-27T09:42:15;98405.06;;;3.51;100.00
3668;BME280;24099;47.102;15.440;2022-11-27T09:45:07;98407.00;;;3.60;100.00
3668;BME280;24099;47.102;15.440;2022-11-27T09:47:54;98399.09;;;3.74;100.00
3668;BME280;24099;47.102;15.440;2022-11-27T09:50:47;98389.63;;;3.97;100.00
3668;BME280;24099;47.102;15.440;2022-11-27T09:53:30;98381.19;;;3.93;100.00
3668;BME280;24099;47.102;15.440;2022-11-27T09:56:20;98373.59;;;3.90;100.00
3668;BME280;24099;47.102;15.440;2022-11-27T09:59:40;98359.66;;;3.91;100.00
3668;BME280;24099;47.102;15.440;2022-11-27T10:02:27;98341.13;;;4.07;100.00
3668;BME280;24099;47.102;15.440;2022-11-27T10:05:19;98333.19;;;4.08;100.00
3668;BME280;24099;47.102;15.440;2022-11-27T10:08:21;98325.00;;;4.37;100.00
3668;BME280;24099;47.102;15.440;2022-11-27T10:11:18;98314.69;;;4.35;100.00
3668;BME280;24099;47.102;15.440;2022-11-27T10:14:18;98302.41;;;4.60;100.00
3668;BME280;24099;47.102;15.440;2022-11-27T10:17:01;98292.59;;;4.74;100.00
3668;BME280;24099;47.102;15.440;2022-11-27T10:19:44;98280.00;;;4.68;100.00
3668;BME280;24099;47.102;15.440;2022-11-27T10:22:44;98265.31;;;5.01;100.00
3668;BME280;24099;47.102;15.440;2022-11-27T10:25:36;98248.38;;;4.84;100.00
3668;BME280;24099;47.102;15.440;2022-11-27T10:28:39;98243.38;;;4.92;100.00
3668;BME280;24099;47.102;15.440;2022-11-27T10:31:30;98251.78;;;4.84;100.00
3668;BME280;24099;47.102;15.440;2022-11-27T10:34:23;98253.69;;;4.94;100.00
3668;BME280;24099;47.102;15.440;2022-11-27T10:37:04;98249.72;;;5.22;100.00
3668;BME280;24099;47.102;15.440;2022-11-27T10:39:45;98234.66;;;5.36;100.00
3668;BME280;24099;47.102;15.440;2022-11-27T10:42:26;98213.72;;;5.47;100.00
3668;BME280;24099;47.102;15.440;2022-11-27T10:45:30;98207.00;;;5.66;100.00
3668;BME280;24099;47.102;15.440;2022-11-27T10:48:52;98199.50;;;5.72;100.00
3668;BME280;24099;47.102;15.440;2022-11-27T10:51:47;98192.81;;;5.79;100.00
3668;BME280;24099;47.102;15.440;2022-11-27T10:54:31;98184.13;;;5.90;100.00
3668;BME280;24099;47.102;15.440;2022-11-27T10:57:43;98170.25;;;6.20;100.00
3668;BME280;24099;47.102;15.440;2022-11-27T11:00:41;98181.03;;;6.27;100.00
3668;BME280;24099;47.102;15.440;2022-11-27T11:03:25;98171.88;;;6.42;100.00
3668;BME280;24099;47.102;15.440;2022-11-27T11:06:17;98168.03;;;6.46;100.00
3668;BME280;24099;47.102;15.440;2022-11-27T11:09:14;98170.22;;;6.41;100.00
3668;BME280;24099;47.102;15.440;2022-11-27T11:12:22;98168.03;;;6.46;100.00
3668;BME280;24099;47.102;15.440;2022-11-27T11:14:51;98165.16;;;6.49;100.00
3668;BME280;24099;47.102;15.440;2022-11-27T11:17:32;98164.91;;;6.62;100.00
3668;BME280;24099;47.102;15.440;2022-11-27T11:20:18;98151.44;;;6.66;100.00
3668;BME280;24099;47.102;15.440;2022-11-27T11:23:04;98151.06;;;6.80;100.00
3668;BME280;24099;47.102;15.440;2022-11-27T11:26:26;98142.91;;;6.64;100.00
3668;BME280;24099;47.102;15.440;2022-11-27T11:29:27;98142.91;;;6.64;100.00
3668;BME280;24099;47.102;15.440;2022-11-27T11:32:15;98136.72;;;6.65;100.00
3668;BME280;24099;47.102;15.440;2022-11-27T11:34:57;98129.03;;;6.73;100.00
3668;BME280;24099;47.102;15.440;2022-11-27T11:37:39;98135.22;;;6.72;100.00
3668;BME280;24099;47.102;15.440;2022-11-27T11:40:40;98131.53;;;6.84;100.00
3668;BME280;24099;47.102;15.440;2022-11-27T11:43:40;98130.31;;;6.79;100.00
3668;BME280;24099;47.102;15.440;2022-11-27T11:46:27;98116.41;;;6.98;100.00
3668;BME280;24099;47.102;15.440;2022-11-27T11:49:01;98119.44;;;6.93;100.00
3668;BME280;24099;47.102;15.440;2022-11-27T11:55:05;98114.75;;;6.97;100.00
3668;BME280;24099;47.102;15.440;2022-11-27T11:58:04;98113.38;;;7.02;100.00
3668;BME280;24099;47.102;15.440;2022-11-27T12:00:41;98101.81;;;7.14;100.00
3668;BME280;24099;47.102;15.440;2022-11-27T12:03:37;98102.66;;;7.15;100.00
3668;BME280;24099;47.102;15.440;2022-11-27T12:06:43;98093.56;;;7.19;100.00
3668;BME280;24099;47.102;15.440;2022-11-27T12:09:32;98086.38;;;7.11;100.00
3668;BME280;24099;47.102;15.440;2022-11-27T12:12:25;98084.06;;;7.18;100.00
3668;BME280;24099;47.102;15.440;2022-11-27T12:15:14;98093.16;;;7.14;100.00
3668;BME280;24099;47.102;15.440;2022-11-27T12:22:21;98069.69;;;7.22;100.00
3668;BME280;24099;47.102;15.440;2022-11-27T12:25:02;98063.78;;;7.39;100.00
3668;BME280;24099;47.102;15.440;2022-11-27T12:28:07;98064.34;;;7.33;100.00
3668;BME280;24099;47.102;15.440;2022-11-27T12:31:01;98064.06;;;7.36;100.00
3668;BME280;24099;47.102;15.440;2022-11-27T12:33:59;98059.66;;;7.37;100.00
3668;BME280;24099;47.102;15.440;2022-11-27T12:36:56;98062.53;;;7.34;100.00
3668;BME280;24099;47.102;15.440;2022-11-27T12:40:05;98059.22;;;7.22;100.00
3668;BME280;24099;47.102;15.440;2022-11-27T12:42:52;98058.81;;;7.26;100.00
3668;BME280;24099;47.102;15.440;2022-11-27T12:45:45;98051.25;;;7.33;100.00
3668;BME280;24099;47.102;15.440;2022-11-27T12:48:35;98059.09;;;7.33;100.00
3668;BME280;24099;47.102;15.440;2022-11-27T12:51:23;98044.72;;;7.47;100.00
3668;BME280;24099;47.102;15.440;2022-11-27T12:54:16;98048.72;;;7.51;100.00
3668;BME280;24099;47.102;15.440;2022-11-27T12:57:32;98044.63;;;7.39;100.00
3668;BME280;24099;47.102;15.440;2022-11-27T13:00:30;98054.25;;;7.48;100.00
3668;BME280;24099;47.102;15.440;2022-11-27T13:03:20;98047.03;;;7.69;100.00
3668;BME280;24099;47.102;15.440;2022-11-27T13:05:54;98057.41;;;7.51;100.00
3668;BME280;24099;47.102;15.440;2022-11-27T13:08:55;98045.59;;;7.38;100.00
3668;BME280;24099;47.102;15.440;2022-11-27T13:11:49;98047.34;;;7.56;100.00
3668;BME280;24099;47.102;15.440;2022-11-27T13:14:27;98048.44;;;7.44;100.00
3668;BME280;24099;47.102;15.440;2022-11-27T13:17:20;98046.94;;;7.51;100.00
3668;BME280;24099;47.102;15.440;2022-11-27T13:19:59;98047.94;;;7.31;100.00
3668;BME280;24099;47.102;15.440;2022-11-27T13:22:43;98046.25;;;7.49;100.00
3668;BME280;24099;47.102;15.440;2022-11-27T13:25:24;98039.78;;;7.44;100.00
3668;BME280;24099;47.102;15.440;2022-11-27T13:28:17;98031.22;;;7.42;100.00
3668;BME280;24099;47.102;15.440;2022-11-27T13:31:01;98036.47;;;7.51;100.00
3668;BME280;24099;47.102;15.440;2022-11-27T13:33:50;98032.69;;;7.64;100.00
3668;BME280;24099;47.102;15.440;2022-11-27T13:36:31;98036.19;;;7.45;100.00
3668;BME280;24099;47.102;15.440;2022-11-27T13:39:31;98030.13;;;7.44;100.00
3668;BME280;24099;47.102;15.440;2022-11-27T13:42:21;98034.13;;;7.48;100.00
3668;BME280;24099;47.102;15.440;2022-11-27T13:45:35;98037.31;;;7.33;100.00
3668;BME280;24099;47.102;15.440;2022-11-27T13:48:35;98029.72;;;7.49;100.00
3668;BME280;24099;47.102;15.440;2022-11-27T13:51:30;98021.25;;;7.65;100.00
3668;BME280;24099;47.102;15.440;2022-11-27T13:54:23;98026.94;;;7.50;100.00
3668;BME280;24099;47.102;15.440;2022-11-27T13:57:27;98019.63;;;7.54;100.00
3668;BME280;24099;47.102;15.440;2022-11-27T14:00:09;98020.22;;;7.38;100.00
3668;BME280;24099;47.102;15.440;2022-11-27T14:03:22;98023.44;;;7.13;100.00
3668;BME280;24099;47.102;15.440;2022-11-27T14:06:24;98021.88;;;7.30;100.00
3668;BME280;24099;47.102;15.440;2022-11-27T14:09:35;98014.03;;;7.20;100.00
3668;BME280;24099;47.102;15.440;2022-11-27T14:12:24;98015.00;;;6.80;100.00
3668;BME280;24099;47.102;15.440;2022-11-27T14:15:08;98010.91;;;6.87;100.00
3668;BME280;24099;47.102;15.440;2022-11-27T14:18:23;98015.56;;;6.65;100.00
3668;BME280;24099;47.102;15.440;2022-11-27T14:21:28;98016.53;;;6.54;100.00
3668;BME280;24099;47.102;15.440;2022-11-27T14:24:33;98025.56;;;6.40;100.00
3668;BME280;24099;47.102;15.440;2022-11-27T14:27:25;98029.84;;;6.32;100.00
3668;BME280;24099;47.102;15.440;2022-11-27T14:30:29;98031.94;;;5.98;100.00
3668;BME280;24099;47.102;15.440;2022-11-27T14:33:28;98039.59;;;5.69;100.00
3668;BME280;24099;47.102;15.440;2022-11-27T14:36:04;98040.25;;;5.61;100.00
3668;BME280;24099;47.102;15.440;2022-11-27T14:42:25;98051.59;;;5.30;100.00
3668;BME280;24099;47.102;15.440;2022-11-27T14:45:23;98046.09;;;4.91;100.00
3668;BME280;24099;47.102;15.440;2022-11-27T14:47:57;98053.13;;;5.11;100.00
3668;BME280;24099;47.102;15.440;2022-11-27T14:50:34;98058.22;;;4.81;100.00
3668;BME280;24099;47.102;15.440;2022-11-27T14:53:13;98063.81;;;4.76;100.00
3668;BME280;24099;47.102;15.440;2022-11-27T14:55:58;98072.09;;;4.38;100.00
3668;BME280;24099;47.102;15.440;2022-11-27T14:59:00;98074.22;;;4.33;100.00
3668;BME280;24099;47.102;15.440;2022-11-27T15:01:45;98070.69;;;4.01;100.00
3668;BME280;24099;47.102;15.440;2022-11-27T15:04:28;98081.81;;;3.92;100.00
3668;BME280;24099;47.102;15.440;2022-11-27T15:07:37;98089.06;;;3.99;100.00